Flight Track Log - Related Links

Times and Time Zones

All times are in EST time to prevent confusion due to time zone crossing. See the EJA583 flight status page for this flight to view local times or setup timezone preferences in your user account.

Time Position Orientation Groundspeed Altitude Reporting Facility
EST Latitude Longitude Course Direction KTS MPH feet Rate Location/Type
Sat 04:37:00 PM 32.1765 -81.6185 285° West  Level Estimated
Sat 04:38:00 PM 32.2096 -81.7161 292° West  Level FlightAware Approximate
Sat 04:39:00 PM 32.2209 -81.8204 287° West  Level Estimated
Sat 04:40:00 PM 32.2550 -81.9175 293° West  Level FlightAware Approximate
Sat 04:41:00 PM 32.2653 -82.0220 285° West  Level Estimated
Sat 04:42:00 PM 32.2926 -82.1222 288° West  Level FlightAware Approximate
Sat 04:43:00 PM 32.3198 -82.2224 288° West  Level FlightAware Approximate
Sat 04:44:00 PM 32.3470 -82.3227 288° West  Level FlightAware Approximate
Sat 04:45:00 PM 32.3740 -82.4230 288° West  Level FlightAware Approximate
Sat 04:46:00 PM 32.4010 -82.5234 288° West  Level FlightAware Approximate
Sat 04:47:00 PM 32.4279 -82.6238 288° West  Level FlightAware Approximate
Sat 04:48:00 PM 32.4548 -82.7243 288° West  Level FlightAware Approximate
Sat 04:49:00 PM 32.4815 -82.8249 288° West  Level FlightAware Approximate
Sat 04:50:00 PM 32.5082 -82.9256 287° West  Level FlightAware Approximate
Sat 04:51:00 PM 32.5348 -83.0262 287° West  Level FlightAware Approximate
Sat 04:52:00 PM 32.5345 -83.1318 283° West  Level Estimated
Sat 04:53:00 PM 32.5342 -83.2373 270° West  Level Estimated
Sat 04:54:00 PM 32.5337 -83.3428 266° West  Level Estimated
Sat 04:55:00 PM 32.5543 -83.4455 283° West  Level FlightAware Approximate
Sat 04:56:00 PM 32.5747 -83.5483 283° West  Level FlightAware Approximate
Sat 04:57:00 PM 32.5708 -83.6538 264° West  Level Estimated
Sat 04:58:00 PM 32.5857 -83.7579 280° West  Level FlightAware Approximate
Sat 04:59:00 PM 32.5799 -83.8632 270° West  Level Estimated
Sat 05:00:00 PM 32.5741 -83.9686 262° West  Level Estimated
Sat 05:01:00 PM 32.5682 -84.0739 270° West  Level Estimated
Sat 05:02:00 PM 32.5799 -84.1786 278° West  Level FlightAware Approximate
Sat 05:03:00 PM 32.5714 -84.2837 264° West  Level Estimated
Sat 05:04:00 PM 32.5796 -84.3888 275° West  Level FlightAware Approximate
Sat 05:05:00 PM 32.5677 -84.4935 270° West  Level Estimated
Sat 05:06:00 PM 32.5558 -84.5981 239° Southwest  Level Estimated
Sat 05:07:00 PM 32.5438 -84.7027 157° South  Level Estimated
Sat 05:08:00 PM 32.5317 -84.8072 157° South  Level Estimated
Sat 05:09:00 PM 32.5195 -84.9118 157° South  Level Estimated
Sat 05:10:00 PM 32.5000 -84.9333 157° South  Level FlightAware Approximate
Sat 05:11:00 PM 32.5163 -84.9389 157° South  Level Estimated
Sat 05:12:00 PM 32.5163 -84.9389 157° South  Level Estimated
Sat 05:13:00 PM 32.5163 -84.9389 157° South  Level Estimated
Sat 05:14:00 PM 32.5163 -84.9389 157° South  Level Estimated
Sat 05:15:00 PM 32.5163 -84.9389 157° South  Level Estimated
Sat 05:16:00 PM 32.5163 -84.9389 157° South  Level Estimated
Sat 05:17:00 PM 32.5163 -84.9389 157° South  Level Estimated
Sat 05:18:00 PM 32.5163 -84.9389 157° South  Level Estimated
Sat 05:19:00 PM 32.5163 -84.9389 157° South  Level Estimated
Sat 05:20:00 PM 32.5163 -84.9389 157° South  Level Estimated
Sat 05:21:00 PM 32.5163 -84.9389 157° South  Level Estimated
Sat 05:22:00 PM 32.5163 -84.9389 157° South  Level Estimated
Sat 05:23:00 PM 32.5163 -84.9389 157° South  Level Estimated
Sat 05:24:00 PM 32.5163 -84.9389 157° South  Level Estimated
Sat 05:25:00 PM 32.5163 -84.9389 157° South  Level Estimated
Sat 05:26:00 PM 32.5163 -84.9389 157° South  Level Estimated
Sat 05:27:00 PM 32.5163 -84.9389 157° South  Level Estimated
Sat 05:28:00 PM 32.5163 -84.9389 157° South  Level Estimated

Login

Don't have an account? Register now (free) for customized features, flight alerts, and more!